Elwell, Michigan
Current Conditions -  °F | °C
As of 1:53 PM on Monday 20 Oct 2014 (Local Time) from KAMN Reporting Station
Overcast Overcast  
Wind Chill: 60°   Ceiling: 2500
Heat Index: 60°   Visibility: 10mi
Dew Point: 49°   Wind: 9mph
Humidity: 67%   Direction: 310°NW
Pressure: 29.78"   Gusts: NA
Location:  43.39°N, 84.75°W
Report Text: KAMN 201753Z AUTO 31008KT 10SM BKN025 OVC055 16/09 A2978 RMK AO2 T01550093
Loading
Personal Weather Stations






























Interactive Weather Map
Tropical Storm Tracking
New forecast layout! Learn more

10-Day Weather Forecast

Advertisements
Track Severe Weather on mobile